Time;durP1;ratioP1;P1;durP2;ratioP2;P2;SDS_P1;SDS_P2;PMS_P1;PMS_P2;Temp;Humidity;BMP_temperature;BMP_pressure;BME280_temperature;BME280_humidity;BME280_pressure;Samples;Min_cycle;Max_cycle;Signal;HPM_P1;HPM_P2
2022/03/25 00:02:11;;;;;;;66.60;46.70;;;4.00;99.90;;;;;;5051342;28;20515;-55
2022/03/25 00:04:38;;;;;;;61.17;43.45;;;4.00;99.90;;;;;;5052420;28;20049;-54
2022/03/25 00:07:09;;;;;;;59.72;43.25;;;3.90;99.90;;;;;;5056960;28;20110;-53
2022/03/25 00:09:35;;;;;;;55.97;43.75;;;3.90;99.90;;;;;;5048246;28;20102;-53
2022/03/25 00:12:00;;;;;;;52.10;41.10;;;3.80;99.90;;;;;;5054436;28;20426;-52
2022/03/25 00:14:26;;;;;;;56.97;42.92;;;3.70;99.90;;;;;;5053903;28;20092;-53
2022/03/25 00:16:53;;;;;;;46.75;38.05;;;3.60;99.90;;;;;;5033479;28;20060;-53
2022/03/25 00:19:19;;;;;;;69.65;50.63;;;3.60;99.90;;;;;;5039315;28;20407;-52
2022/03/25 00:21:45;;;;;;;53.00;41.28;;;3.60;99.90;;;;;;5052013;28;20059;-54
2022/03/25 00:24:10;;;;;;;57.90;42.28;;;3.60;99.90;;;;;;5051209;28;20053;-53
2022/03/25 00:26:36;;;;;;;64.70;45.72;;;3.50;99.90;;;;;;5047601;28;20048;-54
2022/03/25 00:29:02;;;;;;;61.45;46.08;;;3.50;99.90;;;;;;5041404;28;20599;-55
2022/03/25 00:31:27;;;;;;;59.78;44.90;;;3.40;99.90;;;;;;5044303;28;20049;-54
2022/03/25 00:33:53;;;;;;;59.05;43.30;;;3.40;99.90;;;;;;5056572;28;20045;-55
2022/03/25 00:36:21;;;;;;;54.58;41.70;;;3.40;99.90;;;;;;5046231;28;20053;-54
2022/03/25 00:38:48;;;;;;;61.92;46.03;;;3.40;99.90;;;;;;5045079;28;20127;-54
2022/03/25 00:41:16;;;;;;;64.53;46.50;;;3.40;99.90;;;;;;5060378;28;20105;-53
2022/03/25 00:43:46;;;;;;;58.40;44.17;;;3.30;99.90;;;;;;5043580;28;20048;-52
2022/03/25 00:46:12;;;;;;;61.42;45.17;;;3.40;99.90;;;;;;5043542;28;20059;-55
2022/03/25 00:48:39;;;;;;;62.50;45.33;;;3.40;99.90;;;;;;5058127;28;20040;-51
2022/03/25 00:51:10;;;;;;;50.47;40.17;;;3.30;99.90;;;;;;5066498;28;20045;-54
2022/03/25 00:53:36;;;;;;;60.75;44.55;;;3.30;99.90;;;;;;5064478;28;20040;-54
2022/03/25 00:56:04;;;;;;;45.78;36.15;;;3.30;99.90;;;;;;5046062;28;20056;-56
2022/03/25 00:58:34;;;;;;;33.55;28.83;;;3.20;99.90;;;;;;5063485;28;20053;-52
2022/03/25 01:01:00;;;;;;;41.20;33.45;;;3.20;99.90;;;;;;5063709;28;20041;-53
2022/03/25 01:03:26;;;;;;;45.45;36.67;;;3.20;99.90;;;;;;5064762;28;20064;-53
2022/03/25 01:05:52;;;;;;;39.20;30.10;;;3.10;99.90;;;;;;5046071;28;20048;-53
2022/03/25 01:08:24;;;;;;;50.83;37.70;;;3.10;99.90;;;;;;5042162;28;20052;-53
2022/03/25 01:10:55;;;;;;;57.47;42.10;;;3.00;99.90;;;;;;5043084;28;20072;-53
2022/03/25 01:13:22;;;;;;;44.30;35.22;;;3.00;99.90;;;;;;5043112;28;20049;-54
2022/03/25 01:15:48;;;;;;;48.42;36.88;;;3.00;99.90;;;;;;5043013;28;20053;-52
2022/03/25 01:18:14;;;;;;;53.78;39.08;;;3.00;99.90;;;;;;5059915;28;20044;-48
2022/03/25 01:20:41;;;;;;;43.88;33.83;;;3.00;99.90;;;;;;5061078;28;20048;-52
2022/03/25 01:23:06;;;;;;;55.30;40.17;;;3.00;99.90;;;;;;5038858;28;20083;-54
2022/03/25 01:25:33;;;;;;;52.45;38.50;;;3.00;99.90;;;;;;5053757;28;20124;-53
2022/03/25 01:27:58;;;;;;;42.33;34.38;;;3.00;99.90;;;;;;5058448;28;20052;-55
2022/03/25 01:30:25;;;;;;;49.35;37.00;;;2.90;99.90;;;;;;5031533;28;20067;-53
2022/03/25 01:32:51;;;;;;;34.08;29.65;;;2.90;99.90;;;;;;5048280;28;20150;-52
2022/03/25 01:35:22;;;;;;;30.33;26.67;;;2.90;99.90;;;;;;5053520;28;20570;-55
2022/03/25 01:37:47;;;;;;;35.85;29.80;;;2.90;99.90;;;;;;5051245;28;20048;-53
2022/03/25 01:40:13;;;;;;;42.90;33.28;;;2.90;99.90;;;;;;5051052;28;20526;-51
2022/03/25 01:42:41;;;;;;;31.88;27.48;;;2.80;99.90;;;;;;5057428;28;20091;-51
2022/03/25 01:45:11;;;;;;;30.45;26.25;;;2.80;99.90;;;;;;5054836;28;20127;-53
2022/03/25 01:47:38;;;;;;;40.00;32.33;;;2.70;99.90;;;;;;5061137;28;20057;-53
2022/03/25 01:50:19;;;;;;;35.33;29.33;;;2.70;99.90;;;;;;5050137;28;20052;-54
2022/03/25 01:52:44;;;;;;;29.98;24.73;;;2.60;99.90;;;;;;5038803;28;20064;-54
2022/03/25 01:55:21;;;;;;;48.50;35.08;;;2.60;99.90;;;;;;5046976;28;20045;-53
2022/03/25 01:57:49;;;;;;;37.45;29.70;;;2.50;99.90;;;;;;5052965;28;20894;-53
2022/03/25 02:00:16;;;;;;;43.03;33.25;;;2.50;99.90;;;;;;5063106;28;20080;-52
2022/03/25 02:02:43;;;;;;;55.28;39.13;;;2.60;99.90;;;;;;5062707;28;20155;-55
2022/03/25 02:05:10;;;;;;;45.65;34.65;;;2.60;99.90;;;;;;5066175;28;20069;-53
2022/03/25 02:07:36;;;;;;;57.28;38.30;;;2.50;99.90;;;;;;5062313;28;20105;-54
2022/03/25 02:10:08;;;;;;;79.15;50.95;;;2.50;99.90;;;;;;5044665;28;20825;-53
2022/03/25 02:12:35;;;;;;;75.45;48.05;;;2.60;99.90;;;;;;5061736;28;20159;-53
2022/03/25 02:15:03;;;;;;;67.50;47.78;;;2.60;99.90;;;;;;5062521;28;20090;-50
2022/03/25 02:17:29;;;;;;;76.20;50.78;;;2.60;99.90;;;;;;5062587;28;20049;-53
2022/03/25 02:20:07;;;;;;;65.90;44.83;;;2.60;99.90;;;;;;5062568;28;20052;-53
2022/03/25 02:22:36;;;;;;;66.95;46.15;;;2.60;99.90;;;;;;5062660;28;20058;-52
2022/03/25 02:25:08;;;;;;;67.90;44.22;;;2.50;99.90;;;;;;5062714;28;20586;-54
2022/03/25 02:27:38;;;;;;;73.10;47.75;;;2.60;99.90;;;;;;5062650;28;20407;-49
2022/03/25 02:30:06;;;;;;;89.28;47.13;;;2.60;99.90;;;;;;5061418;28;20044;-54
2022/03/25 02:32:39;;;;;;;118.97;51.88;;;2.60;99.90;;;;;;5062221;28;20125;-53
2022/03/25 02:35:06;;;;;;;166.70;50.95;;;2.60;99.90;;;;;;5061644;28;20052;-51
2022/03/25 02:37:32;;;;;;;86.15;40.35;;;2.60;99.90;;;;;;5062190;28;20068;-55
2022/03/25 02:39:58;;;;;;;77.63;42.03;;;2.60;99.90;;;;;;5053348;28;20060;-54
2022/03/25 02:42:27;;;;;;;89.32;41.65;;;2.60;99.90;;;;;;5055583;28;20064;-52
2022/03/25 02:44:54;;;;;;;122.50;41.70;;;2.60;99.90;;;;;;5057982;28;20130;-54
2022/03/25 02:47:20;;;;;;;247.55;48.35;;;2.50;99.90;;;;;;5060171;28;20113;-53
2022/03/25 02:49:51;;;;;;;378.10;52.53;;;2.40;99.90;;;;;;5043938;28;20065;-52
2022/03/25 02:52:17;;;;;;;230.38;49.97;;;2.30;99.90;;;;;;5060933;28;20532;-53
2022/03/25 02:54:46;;;;;;;200.50;47.05;;;2.30;99.90;;;;;;5062029;28;20052;-50
2022/03/25 02:57:21;;;;;;;120.07;41.35;;;2.30;99.90;;;;;;5050777;28;20510;-54
2022/03/25 02:59:47;;;;;;;155.13;42.33;;;2.20;99.90;;;;;;5052095;28;20059;-52
2022/03/25 03:02:13;;;;;;;176.45;42.08;;;2.10;99.90;;;;;;5057967;28;20049;-54
2022/03/25 03:04:38;;;;;;;169.90;41.70;;;2.10;99.90;;;;;;5054085;28;20375;-54
2022/03/25 03:07:04;;;;;;;177.75;41.83;;;2.00;99.90;;;;;;5051331;28;20047;-51
2022/03/25 03:09:30;;;;;;;138.98;40.53;;;2.00;99.90;;;;;;5062011;28;20526;-53
2022/03/25 03:11:57;;;;;;;166.27;40.70;;;1.90;99.90;;;;;;5039385;28;20049;-53
2022/03/25 03:14:23;;;;;;;148.20;40.88;;;1.90;99.90;;;;;;5054605;28;20049;-54
2022/03/25 03:16:49;;;;;;;81.93;40.25;;;2.00;99.90;;;;;;5059552;28;20060;-54
2022/03/25 03:19:17;;;;;;;151.38;40.88;;;2.00;99.90;;;;;;5026066;28;20060;-52
2022/03/25 03:21:45;;;;;;;191.80;44.42;;;2.00;99.90;;;;;;5049265;28;20049;-50
2022/03/25 03:24:13;;;;;;;186.07;45.58;;;2.10;99.90;;;;;;5043537;28;20041;-54
2022/03/25 03:26:39;;;;;;;81.13;41.17;;;2.10;99.90;;;;;;5060015;28;20052;-53
2022/03/25 03:29:07;;;;;;;335.77;49.88;;;2.20;99.90;;;;;;5059894;28;20059;-54
2022/03/25 03:31:33;;;;;;;301.90;47.33;;;2.20;99.90;;;;;;5060961;28;20079;-52
2022/03/25 03:33:59;;;;;;;236.40;47.20;;;2.20;99.90;;;;;;5054674;28;20202;-54
2022/03/25 03:36:25;;;;;;;282.02;52.63;;;2.20;99.90;;;;;;5051056;28;20045;-49
2022/03/25 03:38:51;;;;;;;337.55;51.05;;;2.20;99.90;;;;;;5040345;28;20053;-54
2022/03/25 03:41:17;;;;;;;300.92;51.28;;;2.20;99.90;;;;;;5048725;28;20056;-53
2022/03/25 03:43:42;;;;;;;477.63;57.03;;;2.20;99.90;;;;;;5063327;28;20106;-54
2022/03/25 03:46:14;;;;;;;604.72;63.88;;;2.20;99.90;;;;;;5051233;28;20060;-50
2022/03/25 03:48:39;;;;;;;500.33;57.78;;;2.20;99.90;;;;;;5053329;28;20091;-50
2022/03/25 03:51:05;;;;;;;604.78;61.75;;;2.20;99.90;;;;;;5057024;28;20458;-52
2022/03/25 03:53:31;;;;;;;557.63;61.85;;;2.20;99.90;;;;;;5063502;28;20041;-53
2022/03/25 03:55:58;;;;;;;624.17;59.83;;;2.10;99.90;;;;;;5056681;28;20077;-50
2022/03/25 03:58:23;;;;;;;534.58;54.63;;;2.00;99.90;;;;;;5061769;28;20051;-53
2022/03/25 04:00:49;;;;;;;425.02;51.83;;;2.00;99.90;;;;;;5057664;28;20380;-53
2022/03/25 04:03:16;;;;;;;322.95;45.97;;;2.00;99.90;;;;;;5057472;28;20049;-49
2022/03/25 04:05:44;;;;;;;297.55;40.58;;;1.90;99.90;;;;;;5058838;28;20475;-54
2022/03/25 04:08:10;;;;;;;217.90;36.63;;;1.80;99.90;;;;;;5063036;28;20048;-52
2022/03/25 04:10:36;;;;;;;136.52;33.22;;;1.70;99.90;;;;;;5050991;28;20049;-53
2022/03/25 04:13:02;;;;;;;128.82;34.15;;;1.50;99.90;;;;;;5053959;28;20052;-53
2022/03/25 04:15:27;;;;;;;145.82;34.67;;;1.50;99.90;;;;;;5050261;28;20554;-51
2022/03/25 04:17:53;;;;;;;122.97;33.28;;;1.40;99.90;;;;;;5057279;28;20358;-50
2022/03/25 04:20:19;;;;;;;114.38;31.73;;;1.40;99.90;;;;;;5063967;28;20205;-52
2022/03/25 04:22:48;;;;;;;191.20;33.42;;;1.40;99.90;;;;;;5056344;28;20049;-52
2022/03/25 04:25:20;;;;;;;187.75;33.47;;;1.30;99.90;;;;;;5057044;28;20242;-52
2022/03/25 04:27:57;;;;;;;142.00;30.92;;;1.20;99.90;;;;;;5035568;28;20156;-52
2022/03/25 04:30:26;;;;;;;114.28;30.63;;;1.10;99.90;;;;;;5060327;28;20045;-52
2022/03/25 04:32:52;;;;;;;72.18;28.27;;;1.00;99.90;;;;;;5056259;28;20057;-53
2022/03/25 04:35:24;;;;;;;46.63;27.75;;;1.00;99.90;;;;;;5058631;28;20121;-51
2022/03/25 04:37:50;;;;;;;48.58;27.85;;;1.00;99.90;;;;;;5063745;28;20051;-50
2022/03/25 04:40:17;;;;;;;51.72;27.63;;;1.00;99.90;;;;;;5063061;28;20048;-52
2022/03/25 04:42:48;;;;;;;49.22;27.92;;;1.00;99.90;;;;;;5057862;28;20060;-53
2022/03/25 04:45:15;;;;;;;43.08;28.75;;;1.00;99.90;;;;;;5057205;28;20475;-52
2022/03/25 04:47:41;;;;;;;50.42;30.67;;;1.00;99.90;;;;;;5061988;28;20048;-53
2022/03/25 04:50:09;;;;;;;76.18;29.95;;;1.00;99.90;;;;;;5057333;28;20098;-49
2022/03/25 04:52:36;;;;;;;50.00;29.20;;;1.00;99.90;;;;;;5055663;28;20049;-47
2022/03/25 04:55:02;;;;;;;104.93;35.15;;;1.00;99.90;;;;;;5057712;28;20409;-52
2022/03/25 04:57:28;;;;;;;260.20;39.63;;;1.10;99.90;;;;;;5055324;28;20055;-54
2022/03/25 04:59:55;;;;;;;231.65;39.25;;;1.10;99.90;;;;;;5062168;28;20049;-49
2022/03/25 05:02:23;;;;;;;206.23;36.67;;;1.00;99.90;;;;;;5053691;28;20053;-52
2022/03/25 05:04:49;;;;;;;122.78;36.30;;;1.10;99.90;;;;;;5054407;28;20048;-53
2022/03/25 05:07:16;;;;;;;143.23;36.45;;;1.00;99.90;;;;;;5058012;28;20547;-53
2022/03/25 05:09:42;;;;;;;221.13;39.15;;;1.10;99.90;;;;;;5048477;28;20040;-54
2022/03/25 05:12:09;;;;;;;159.13;36.15;;;1.10;99.90;;;;;;5062556;28;20048;-49
2022/03/25 05:14:35;;;;;;;351.45;42.67;;;1.10;99.90;;;;;;5061932;28;20101;-49
2022/03/25 05:17:01;;;;;;;396.02;43.97;;;1.10;99.90;;;;;;5050741;28;20044;-51
2022/03/25 05:19:27;;;;;;;391.52;45.72;;;1.10;99.90;;;;;;5035263;28;20638;-49
2022/03/25 05:21:52;;;;;;;391.25;45.40;;;1.10;99.90;;;;;;5055739;28;20063;-53
2022/03/25 05:24:18;;;;;;;333.52;39.80;;;1.00;99.90;;;;;;5054975;28;20048;-53
2022/03/25 05:26:44;;;;;;;216.18;36.22;;;1.00;99.90;;;;;;5062892;28;20500;-54
2022/03/25 05:29:10;;;;;;;303.45;43.17;;;1.00;99.90;;;;;;5048760;28;20053;-54
2022/03/25 05:31:37;;;;;;;287.45;41.17;;;1.00;99.90;;;;;;5062011;28;20045;-53
2022/03/25 05:34:06;;;;;;;168.45;38.80;;;1.00;99.90;;;;;;5049161;28;20052;-53
2022/03/25 05:36:33;;;;;;;163.38;38.88;;;1.10;99.90;;;;;;5051989;28;20159;-54
2022/03/25 05:39:00;;;;;;;339.15;44.25;;;1.10;99.90;;;;;;5059405;28;20053;-54
2022/03/25 05:41:29;;;;;;;341.02;45.63;;;1.10;99.90;;;;;;5036239;28;20059;-55
2022/03/25 05:43:55;;;;;;;412.30;47.35;;;1.20;99.90;;;;;;5036425;28;20108;-53
2022/03/25 05:46:24;;;;;;;483.45;48.25;;;1.20;99.90;;;;;;5034027;28;20054;-53
2022/03/25 05:48:50;;;;;;;522.00;53.80;;;1.20;99.90;;;;;;5031263;28;20056;-52
2022/03/25 05:51:24;;;;;;;334.92;45.10;;;1.20;99.90;;;;;;5033258;28;20058;-52
2022/03/25 05:53:50;;;;;;;269.00;41.25;;;1.30;99.90;;;;;;5036433;28;20140;-52
2022/03/25 05:56:16;;;;;;;312.70;44.50;;;1.40;99.90;;;;;;5036004;28;20047;-53
2022/03/25 05:58:42;;;;;;;436.25;49.38;;;1.40;99.90;;;;;;5039379;28;20087;-53
2022/03/25 06:01:07;;;;;;;448.02;48.70;;;1.50;99.90;;;;;;5035094;28;20049;-50
2022/03/25 06:03:33;;;;;;;430.08;48.70;;;1.50;99.90;;;;;;5034810;28;20055;-53
2022/03/25 06:06:02;;;;;;;306.27;40.60;;;1.60;99.90;;;;;;5034783;28;20045;-53
2022/03/25 06:08:28;;;;;;;181.68;38.90;;;1.60;99.90;;;;;;5035632;28;20266;-50
2022/03/25 06:10:55;;;;;;;348.13;41.17;;;1.70;99.90;;;;;;5039750;28;20065;-54
2022/03/25 06:13:21;;;;;;;188.30;40.05;;;1.70;99.90;;;;;;5035377;28;20581;-50
2022/03/25 06:15:47;;;;;;;150.10;36.90;;;1.80;99.90;;;;;;5035938;28;20057;-52
2022/03/25 06:18:14;;;;;;;132.60;33.70;;;1.90;99.90;;;;;;5041134;28;20044;-47
2022/03/25 06:20:39;;;;;;;57.20;30.27;;;2.00;99.90;;;;;;5040618;28;20132;-53
2022/03/25 06:23:05;;;;;;;80.63;31.92;;;2.20;99.90;;;;;;5031582;28;20138;-54
2022/03/25 06:25:31;;;;;;;60.75;29.88;;;2.40;99.90;;;;;;5038900;28;20056;-53
2022/03/25 06:28:01;;;;;;;70.85;31.88;;;2.70;99.90;;;;;;5036387;28;20053;-50
2022/03/25 06:30:31;;;;;;;115.72;31.88;;;3.00;99.90;;;;;;5034365;28;20055;-48
2022/03/25 06:32:58;;;;;;;87.68;31.58;;;3.50;99.90;;;;;;5030910;28;20606;-50
2022/03/25 06:35:25;;;;;;;43.55;28.98;;;3.80;99.90;;;;;;5035373;28;20116;-53
2022/03/25 06:37:55;;;;;;;64.20;27.95;;;4.20;99.90;;;;;;5039827;28;20127;-52
2022/03/25 06:40:21;;;;;;;61.42;27.05;;;4.50;99.90;;;;;;5037980;28;20057;-54
2022/03/25 06:42:47;;;;;;;33.75;26.63;;;4.90;99.90;;;;;;5031855;28;20056;-53
2022/03/25 06:45:15;;;;;;;60.55;26.52;;;5.30;99.90;;;;;;5060872;28;20071;-52
2022/03/25 06:47:42;;;;;;;38.17;25.52;;;5.70;99.90;;;;;;5056262;28;20126;-53
2022/03/25 06:50:13;;;;;;;34.30;24.50;;;6.10;99.90;;;;;;5058667;28;20059;-50
2022/03/25 06:52:40;;;;;;;25.95;23.45;;;6.60;99.90;;;;;;5061573;28;20131;-54
2022/03/25 06:55:21;;;;;;;26.08;23.40;;;7.10;99.90;;;;;;5055558;28;20182;-51
2022/03/25 06:57:49;;;;;;;25.33;22.90;;;7.40;99.90;;;;;;5060516;28;20059;-54
2022/03/25 07:00:17;;;;;;;25.00;22.73;;;7.50;99.90;;;;;;5058894;28;20074;-54
2022/03/25 07:02:43;;;;;;;24.75;22.45;;;7.40;99.90;;;;;;5053194;28;20053;-55
2022/03/25 07:05:11;;;;;;;27.08;24.48;;;7.40;99.90;;;;;;5056921;28;20124;-55
2022/03/25 07:07:39;;;;;;;23.77;21.67;;;7.50;99.90;;;;;;5056570;28;20051;-53
2022/03/25 07:10:09;;;;;;;25.98;23.58;;;7.60;99.90;;;;;;5057473;28;20058;-54
2022/03/25 07:12:36;;;;;;;28.95;26.05;;;7.80;99.90;;;;;;5052121;28;20118;-49
2022/03/25 07:15:04;;;;;;;29.08;26.13;;;8.00;99.90;;;;;;5042563;28;20263;-54
2022/03/25 07:17:30;;;;;;;32.63;29.27;;;8.00;99.90;;;;;;5062458;28;20055;-54
2022/03/25 07:19:55;;;;;;;36.25;32.50;;;8.20;99.90;;;;;;5059977;28;20084;-52
2022/03/25 07:22:26;;;;;;;38.47;32.97;;;8.30;99.90;;;;;;5057717;28;20563;-53
2022/03/25 07:24:52;;;;;;;42.83;37.15;;;8.40;99.90;;;;;;5056979;28;20079;-54
2022/03/25 07:27:18;;;;;;;40.45;35.97;;;8.60;99.90;;;;;;5063185;28;20082;-55
2022/03/25 07:29:44;;;;;;;39.38;35.08;;;8.80;99.90;;;;;;5052883;28;20063;-54
2022/03/25 07:32:10;;;;;;;39.95;35.50;;;8.80;99.90;;;;;;5051070;28;20041;-54
2022/03/25 07:34:37;;;;;;;39.45;35.03;;;8.90;99.90;;;;;;5050421;28;20067;-50
2022/03/25 07:37:04;;;;;;;42.78;36.85;;;8.90;99.90;;;;;;5058344;28;20048;-53
2022/03/25 07:39:30;;;;;;;43.10;36.53;;;9.00;99.90;;;;;;5049623;28;20044;-55
2022/03/25 07:41:56;;;;;;;48.40;38.80;;;8.80;99.90;;;;;;5039146;28;20406;-55
2022/03/25 07:44:22;;;;;;;45.88;39.40;;;8.90;99.90;;;;;;5053907;28;20051;-51
2022/03/25 07:46:48;;;;;;;48.60;38.42;;;8.90;99.90;;;;;;5056615;28;20397;-55
2022/03/25 07:49:14;;;;;;;48.97;39.50;;;9.00;99.90;;;;;;5054522;28;20045;-52
2022/03/25 07:51:41;;;;;;;49.38;40.67;;;9.10;99.90;;;;;;5056346;28;20050;-55
2022/03/25 07:54:06;;;;;;;45.08;37.85;;;9.20;99.90;;;;;;5050313;28;20049;-55
2022/03/25 07:56:35;;;;;;;47.95;38.38;;;9.20;99.90;;;;;;5057356;28;20612;-54
2022/03/25 07:59:03;;;;;;;48.78;38.67;;;9.50;99.90;;;;;;5060161;28;20040;-53
2022/03/25 08:01:29;;;;;;;50.72;38.90;;;9.50;99.90;;;;;;5063809;28;20051;-55
2022/03/25 08:03:55;;;;;;;49.90;38.78;;;9.60;99.90;;;;;;5059023;28;20048;-49
2022/03/25 08:06:22;;;;;;;51.42;39.05;;;9.60;99.90;;;;;;5044623;28;20174;-56
2022/03/25 08:08:51;;;;;;;51.92;38.83;;;9.60;99.90;;;;;;5039636;28;20146;-56
2022/03/25 08:11:20;;;;;;;48.13;38.40;;;9.60;99.90;;;;;;5060530;28;20050;-56
2022/03/25 08:13:47;;;;;;;47.72;36.50;;;9.70;99.90;;;;;;5062457;28;20083;-55
2022/03/25 08:16:16;;;;;;;44.47;38.03;;;9.80;99.90;;;;;;5061472;28;20052;-55
2022/03/25 08:18:43;;;;;;;48.28;35.78;;;9.80;99.90;;;;;;5057778;28;20490;-56
2022/03/25 08:21:10;;;;;;;50.63;37.55;;;10.10;99.90;;;;;;5059705;28;20590;-54
2022/03/25 08:29:06;;;;;;;49.55;36.95;;;10.50;99.90;;;;;;5058253;28;20052;-48
2022/03/25 08:31:34;;;;;;;44.00;35.25;;;10.60;99.90;;;;;;5053444;28;20470;-55
2022/03/25 08:34:01;;;;;;;43.33;36.60;;;10.60;99.90;;;;;;5047040;28;20050;-55
2022/03/25 08:36:27;;;;;;;42.33;33.22;;;10.70;99.90;;;;;;5051214;28;20107;-51
2022/03/25 08:38:53;;;;;;;43.95;34.22;;;10.80;99.90;;;;;;5054852;28;20045;-56
2022/03/25 08:41:19;;;;;;;45.47;32.33;;;10.80;99.90;;;;;;5048902;28;20408;-56
2022/03/25 08:43:47;;;;;;;38.88;30.98;;;10.90;99.90;;;;;;5047107;28;20585;-55
2022/03/25 08:46:13;;;;;;;39.92;30.13;;;11.20;99.90;;;;;;5058719;28;20052;-55
2022/03/25 08:48:39;;;;;;;38.92;30.08;;;11.30;99.90;;;;;;5034992;28;20498;-55
2022/03/25 08:51:05;;;;;;;35.70;25.58;;;11.50;99.90;;;;;;5049817;28;20080;-56
2022/03/25 08:53:31;;;;;;;36.10;26.70;;;11.50;99.90;;;;;;5047555;28;20135;-53
2022/03/25 08:55:57;;;;;;;38.22;26.75;;;11.70;99.90;;;;;;5049572;28;20044;-51
2022/03/25 08:58:23;;;;;;;35.55;25.88;;;11.90;99.90;;;;;;5058434;28;20094;-51
2022/03/25 09:00:49;;;;;;;33.95;25.80;;;12.00;99.90;;;;;;5055213;28;20048;-56
2022/03/25 09:03:15;;;;;;;34.38;24.08;;;12.00;99.90;;;;;;5059621;28;20436;-52
2022/03/25 09:05:40;;;;;;;33.00;25.42;;;12.20;99.90;;;;;;5048961;28;20452;-56
2022/03/25 09:08:06;;;;;;;30.90;23.17;;;12.20;99.90;;;;;;5061092;28;20200;-56
2022/03/25 09:10:32;;;;;;;31.23;23.02;;;12.30;99.90;;;;;;5056248;28;20099;-56
2022/03/25 09:12:58;;;;;;;30.60;21.85;;;12.40;99.90;;;;;;5054599;28;20083;-56
2022/03/25 09:15:25;;;;;;;30.38;22.65;;;12.50;99.90;;;;;;5061440;28;20056;-56
2022/03/25 09:17:51;;;;;;;35.50;24.88;;;12.50;99.90;;;;;;5062121;28;20799;-56
2022/03/25 09:20:18;;;;;;;33.30;22.73;;;12.60;99.90;;;;;;5063539;28;20044;-58
2022/03/25 09:22:44;;;;;;;32.97;23.23;;;12.70;99.90;;;;;;5047996;28;20055;-55
2022/03/25 09:25:10;;;;;;;33.70;22.77;;;12.80;99.90;;;;;;5054984;28;20044;-55
2022/03/25 09:27:39;;;;;;;28.42;21.90;;;12.80;99.90;;;;;;5043349;28;20048;-55
2022/03/25 09:30:05;;;;;;;31.83;23.42;;;12.90;99.90;;;;;;5056062;28;20537;-56
2022/03/25 09:32:31;;;;;;;30.52;24.08;;;13.00;99.90;;;;;;5033111;28;20052;-53
2022/03/25 09:35:09;;;;;;;30.20;23.05;;;13.00;99.90;;;;;;5036002;28;20053;-53
2022/03/25 09:37:47;;;;;;;29.27;22.17;;;13.20;99.90;;;;;;5057667;28;20052;-55
2022/03/25 09:40:21;;;;;;;34.35;23.08;;;13.30;99.90;;;;;;5051393;28;20391;-56
2022/03/25 09:42:48;;;;;;;33.47;24.88;;;13.30;99.30;;;;;;5054966;28;20070;-45
2022/03/25 09:45:18;;;;;;;33.40;25.13;;;13.50;99.90;;;;;;5054263;28;20049;-55
2022/03/25 09:47:45;;;;;;;35.15;24.85;;;13.60;99.80;;;;;;5054680;28;20076;-55
2022/03/25 09:50:14;;;;;;;34.47;24.55;;;13.80;99.40;;;;;;5060069;28;20040;-56
2022/03/25 09:52:43;;;;;;;32.33;24.63;;;13.90;98.60;;;;;;5053487;28;20079;-56
2022/03/25 09:55:11;;;;;;;34.78;23.15;;;13.80;98.00;;;;;;5057887;28;20062;-55
2022/03/25 09:57:37;;;;;;;30.65;22.92;;;13.80;98.30;;;;;;5052220;28;20044;-54
2022/03/25 10:00:13;;;;;;;36.47;26.15;;;13.90;98.90;;;;;;5051752;28;20044;-56
2022/03/25 10:02:39;;;;;;;33.35;25.08;;;13.90;97.10;;;;;;5054883;28;20412;-56
2022/03/25 10:05:16;;;;;;;34.65;25.85;;;14.00;97.90;;;;;;5059804;28;20044;-56
2022/03/25 10:07:52;;;;;;;32.53;24.10;;;14.10;97.10;;;;;;5056668;28;20052;-56
2022/03/25 10:10:21;;;;;;;32.22;26.42;;;14.20;97.50;;;;;;5058790;28;20574;-55
2022/03/25 10:13:00;;;;;;;36.20;26.27;;;14.30;97.80;;;;;;5058369;28;20059;-56
2022/03/25 10:15:32;;;;;;;32.58;25.60;;;14.20;97.00;;;;;;5053994;28;20044;-55
2022/03/25 10:18:01;;;;;;;36.15;28.05;;;14.40;96.70;;;;;;5053261;28;20084;-51
2022/03/25 10:20:33;;;;;;;35.53;26.70;;;14.50;97.20;;;;;;5053782;28;20758;-53
2022/03/25 10:23:30;;;;;;;36.58;27.90;;;14.50;97.00;;;;;;5040155;28;20071;-56
2022/03/25 10:25:57;;;;;;;36.05;26.58;;;14.50;96.50;;;;;;4961364;28;20067;-55
2022/03/25 10:28:27;;;;;;;32.13;27.30;;;14.60;97.20;;;;;;4934353;28;20089;-56
2022/03/25 10:31:11;;;;;;;35.63;27.23;;;14.80;97.40;;;;;;4961819;28;20063;-55
2022/03/25 10:33:42;;;;;;;35.35;28.27;;;14.90;96.00;;;;;;4943106;28;20142;-56
2022/03/25 10:36:10;;;;;;;35.60;28.90;;;15.00;97.20;;;;;;4961000;28;20073;-46
2022/03/25 10:38:58;;;;;;;34.20;27.73;;;14.90;95.30;;;;;;4962533;28;20122;-56
2022/03/25 10:41:36;;;;;;;35.25;26.95;;;15.10;96.50;;;;;;4960280;28;20057;-56
2022/03/25 10:44:03;;;;;;;35.35;26.90;;;15.10;96.20;;;;;;4958477;28;20151;-58
2022/03/25 10:46:46;;;;;;;32.42;24.92;;;15.20;95.60;;;;;;4958772;28;20149;-56
2022/03/25 10:49:14;;;;;;;35.80;27.45;;;15.20;94.90;;;;;;4957751;28;20226;-56
2022/03/25 10:51:44;;;;;;;32.80;26.25;;;15.30;95.80;;;;;;4960579;28;20589;-56
2022/03/25 10:54:14;;;;;;;33.58;27.83;;;15.20;94.60;;;;;;4958469;28;20594;-55
2022/03/25 10:56:48;;;;;;;33.75;25.65;;;15.00;94.00;;;;;;4955479;28;20102;-56
2022/03/25 10:59:22;;;;;;;30.80;22.45;;;15.10;95.40;;;;;;4950468;28;20058;-53
2022/03/25 11:01:51;;;;;;;33.30;23.60;;;15.30;94.60;;;;;;4974741;28;20096;-56
2022/03/25 11:04:18;;;;;;;29.30;23.45;;;15.30;94.70;;;;;;5056523;28;20474;-55
2022/03/25 11:06:45;;;;;;;28.25;23.85;;;15.30;95.20;;;;;;5041133;28;20064;-53
2022/03/25 11:09:13;;;;;;;31.02;23.83;;;15.30;95.10;;;;;;5034733;28;20052;-56
2022/03/25 11:11:45;;;;;;;31.85;22.83;;;15.40;94.90;;;;;;5060710;28;20487;-55
2022/03/25 11:14:11;;;;;;;32.50;24.83;;;15.50;95.00;;;;;;5058587;28;20067;-56
2022/03/25 11:16:44;;;;;;;32.95;24.50;;;15.50;94.70;;;;;;5062401;28;20507;-56
2022/03/25 11:19:13;;;;;;;31.27;22.45;;;15.60;94.40;;;;;;5056447;28;20067;-53
2022/03/25 11:21:46;;;;;;;40.63;24.85;;;15.60;94.20;;;;;;5056550;28;20483;-55
2022/03/25 11:24:16;;;;;;;;;;;15.70;93.60;;;;;;5056976;28;20055;-56
2022/03/25 11:26:44;;;;;;;32.05;23.08;;;15.80;94.20;;;;;;5048867;28;19925;-56
2022/03/25 11:29:13;;;;;;;31.83;24.13;;;16.00;94.00;;;;;;5051735;28;20049;-56
2022/03/25 11:32:05;;;;;;;33.25;23.92;;;15.80;92.60;;;;;;5042505;28;20052;-56
2022/03/25 11:34:31;;;;;;;34.50;24.63;;;15.80;93.30;;;;;;5051015;28;20063;-56
2022/03/25 11:37:16;;;;;;;31.00;24.25;;;16.00;94.10;;;;;;5060488;28;20055;-51
2022/03/25 11:39:43;;;;;;;32.05;23.80;;;15.80;93.90;;;;;;5069008;28;20074;-56
2022/03/25 11:42:40;;;;;;;34.05;25.08;;;15.70;93.10;;;;;;5062288;28;20507;-55
2022/03/25 11:45:21;;;;;;;34.60;23.08;;;15.80;93.00;;;;;;5054831;28;20053;-56
2022/03/25 11:48:04;;;;;;;31.50;23.95;;;15.70;93.20;;;;;;5062043;28;20056;-56
2022/03/25 11:50:35;;;;;;;31.13;22.85;;;15.80;93.30;;;;;;5050542;28;20044;-57
2022/03/25 11:53:13;;;;;;;30.20;23.25;;;15.80;92.70;;;;;;5054917;28;20055;-56
2022/03/25 11:56:00;;;;;;;27.30;22.88;;;15.80;92.80;;;;;;5051990;28;20095;-54
2022/03/25 11:58:33;;;;;;;27.17;22.83;;;16.00;93.20;;;;;;5061638;28;20044;-55
2022/03/25 12:01:03;;;;;;;30.42;21.08;;;16.00;92.90;;;;;;5064281;28;20048;-55
2022/03/25 12:03:42;;;;;;;32.05;22.85;;;16.00;91.60;;;;;;5064212;28;20063;-56
2022/03/25 12:06:09;;;;;;;30.88;22.38;;;15.90;92.10;;;;;;5043091;28;20052;-55
2022/03/25 12:08:35;;;;;;;29.65;22.08;;;15.80;91.20;;;;;;5043172;28;20056;-51
2022/03/25 12:11:07;;;;;;;37.13;22.92;;;15.70;91.50;;;;;;5022640;28;20053;-55
2022/03/25 12:13:52;;;;;;;30.60;23.55;;;15.70;91.20;;;;;;5041055;28;20542;-56
2022/03/25 12:16:48;;;;;;;26.40;20.38;;;15.70;91.50;;;;;;5041814;28;20088;-48
2022/03/25 12:19:26;;;;;;;27.65;22.13;;;15.70;90.40;;;;;;5022705;28;20470;-56
2022/03/25 12:21:52;;;;;;;29.10;22.73;;;15.70;93.30;;;;;;5040921;28;20052;-56
2022/03/25 12:24:19;;;;;;;27.15;20.48;;;15.90;93.30;;;;;;5041184;28;20057;-56
2022/03/25 12:26:44;;;;;;;28.33;22.98;;;16.00;92.10;;;;;;5041382;28;20120;-56
2022/03/25 12:29:11;;;;;;;33.13;24.10;;;15.90;91.20;;;;;;5043439;28;20452;-56
2022/03/25 12:31:37;;;;;;;35.33;23.48;;;15.80;90.90;;;;;;5040585;28;20106;-56
2022/03/25 12:34:05;;;;;;;34.15;21.58;;;15.70;90.50;;;;;;5033957;28;20067;-56
2022/03/25 12:36:41;;;;;;;31.17;21.58;;;15.80;91.60;;;;;;5022086;28;20044;-51
2022/03/25 12:39:16;;;;;;;30.65;23.38;;;16.00;90.90;;;;;;5039101;28;20496;-54
2022/03/25 12:41:50;;;;;;;28.60;21.00;;;15.90;90.70;;;;;;5040673;28;20092;-56
2022/03/25 12:44:30;;;;;;;31.38;22.60;;;15.90;91.30;;;;;;5040731;28;20048;-56